Anton Chico, New Mexico
Current Conditions -  °F | °C
As of 5:09 PM on Monday 22 Dec 2014 (Local Time) from KLVS Reporting Station
Light Snow Light Snow  
Wind Chill: -9°   Ceiling: 1900
Heat Index: -2°   Visibility: 1.5mi
Dew Point: -3°   Wind: 17mph
Humidity: 92%   Direction: 80°E
Pressure: 29.71"   Gusts: 25mph
Location:  35.2°N, 105.14°W
Report Text: KLVS 230009Z AUTO 08015G22KT 1 1/2SM -SN BR FEW006 BKN019 OVC035 M02/M03 A2971 RMK AO2 P0000 T10221033
Loading
Personal Weather Stations






























Interactive Weather Map New forecast layout! Learn more

10-Day Weather Forecast

Advertisements
Track Severe Weather on mobile